ESMN weather

Public forecast

Using degrees Celsius for public forecast. Weather courtesy of forecast.io.

Closest aviation weather report (METAR) to Lund Airport

Closest report is Malmö Sturup Airport, 10.5 nm (19.5 km) SSE. Retrieved 2020/08/09 14:20 UTC (39 minutes ago):

ESMS 091420Z 04005KT 350V090 CAVOK 32/14 Q1019

Closest aviation forecast (TAF) to Lund Airport

Closest forecast is Malmö Sturup Airport, 10.5 nm (19.5 km) SSE. Retrieved 2020/08/09 12:00 UTC (3 hours ago):

TAF ESMS 091107Z 0912/1012 06004KT CAVOK BECMG 1007/1010 12010KT